createdAt,value
2023-04-16T00:03:09.470Z,58.87
2023-04-16T00:08:02.371Z,54.33
2023-04-16T00:12:56.278Z,58.13
2023-04-16T00:17:48.986Z,59.03
2023-04-16T00:22:41.582Z,55.90
2023-04-16T00:27:34.161Z,58.93
2023-04-16T00:32:28.075Z,59.03
2023-04-16T00:37:20.801Z,52.00
2023-04-16T00:42:13.466Z,59.10
2023-04-16T00:47:07.538Z,50.87
2023-04-16T00:52:02.441Z,55.03
2023-04-16T00:56:55.085Z,57.00
2023-04-16T01:01:47.673Z,52.63
2023-04-16T01:06:40.276Z,52.83
2023-04-16T01:11:34.209Z,52.37
2023-04-16T01:16:27.699Z,56.03
2023-04-16T01:21:21.640Z,58.07
2023-04-16T01:26:14.191Z,61.23
2023-04-16T01:31:07.510Z,57.97
2023-04-16T01:36:08.965Z,54.13
2023-04-16T01:41:02.859Z,55.77
2023-04-16T01:45:59.943Z,58.20
2023-04-16T01:50:52.566Z,61.80
2023-04-16T01:55:45.257Z,59.60
2023-04-16T02:00:39.722Z,58.50
2023-04-16T02:05:32.292Z,59.70
2023-04-16T02:10:24.901Z,60.40
2023-04-16T02:15:18.249Z,64.33
2023-04-16T02:20:13.141Z,60.23
2023-04-16T02:25:14.183Z,56.67
2023-04-16T02:30:08.569Z,58.23
2023-04-16T02:35:03.908Z,60.83
2023-04-16T02:39:57.844Z,58.53
2023-04-16T02:44:50.439Z,60.87
2023-04-16T02:49:43.029Z,57.40
2023-04-16T02:54:35.693Z,55.27
2023-04-16T02:59:29.825Z,53.47
2023-04-16T03:04:22.654Z,64.70
2023-04-16T03:09:15.861Z,59.20
2023-04-16T03:14:08.374Z,61.43
2023-04-16T03:19:02.314Z,59.47
2023-04-16T03:23:56.044Z,58.50
2023-04-16T03:28:48.626Z,59.87
2023-04-16T03:33:43.607Z,62.57
2023-04-16T03:38:38.504Z,62.23
2023-04-16T03:43:31.281Z,68.23
2023-04-16T03:48:24.125Z,61.50
2023-04-16T03:53:16.827Z,63.03
2023-04-16T03:58:11.159Z,65.23
2023-04-16T04:03:04.119Z,63.23
2023-04-16T04:07:58.955Z,61.07
2023-04-16T04:12:51.626Z,58.07
2023-04-16T04:17:46.035Z,57.20
2023-04-16T04:22:38.917Z,56.37
2023-04-16T04:27:31.655Z,56.47
2023-04-16T04:32:24.641Z,52.37
2023-04-16T04:37:18.699Z,52.37
2023-04-16T04:42:11.550Z,58.40
2023-04-16T04:47:05.078Z,53.93
2023-04-16T04:51:57.798Z,66.33
2023-04-16T04:56:52.551Z,55.03
2023-04-16T05:01:45.943Z,52.87
2023-04-16T05:06:38.736Z,52.40
2023-04-16T05:11:31.556Z,55.57
2023-04-16T05:16:25.637Z,51.13
2023-04-16T05:21:18.286Z,50.70
2023-04-16T05:26:10.985Z,48.50
2023-04-16T05:31:03.582Z,53.47
2023-04-16T05:35:57.528Z,54.67
2023-04-16T05:40:50.675Z,56.50
2023-04-16T05:45:43.390Z,58.73
2023-04-16T05:50:36.085Z,55.90
2023-04-16T05:55:30.036Z,57.90
2023-04-16T06:00:22.661Z,54.17
2023-04-16T06:05:15.295Z,44.77
2023-04-16T06:10:08.256Z,55.93
2023-04-16T06:15:02.231Z,47.03
2023-04-16T06:19:54.750Z,44.00
2023-04-16T06:24:47.235Z,39.37
2023-04-16T06:29:41.508Z,40.00
2023-04-16T06:34:35.919Z,43.80
2023-04-16T06:39:28.510Z,41.33
2023-04-16T06:44:21.036Z,40.10
2023-04-16T06:49:13.656Z,38.67
2023-04-16T06:54:07.599Z,39.57
2023-04-16T06:59:00.961Z,50.73
2023-04-16T07:03:53.903Z,36.13
2023-04-16T07:08:46.610Z,35.00
2023-04-16T07:13:40.595Z,39.70
2023-04-16T07:18:33.392Z,42.20
2023-04-16T07:23:25.934Z,44.23
2023-04-16T07:28:18.499Z,43.47
2023-04-16T07:33:12.396Z,58.03
2023-04-16T07:38:05.128Z,40.03
2023-04-16T07:42:57.794Z,43.07
2023-04-16T07:47:50.448Z,54.97
2023-04-16T07:52:45.364Z,44.20
2023-04-16T07:57:38.151Z,43.37
2023-04-16T08:02:30.804Z,43.77
2023-04-16T08:07:23.440Z,40.67
2023-04-16T08:12:17.472Z,45.13
2023-04-16T08:17:10.198Z,41.20
2023-04-16T08:22:02.894Z,40.10
2023-04-16T08:26:58.410Z,41.70
2023-04-16T08:31:56.750Z,35.27
2023-04-16T08:36:49.508Z,35.00
2023-04-16T08:41:44.019Z,34.50
2023-04-16T08:46:37.980Z,46.57
2023-04-16T08:51:34.991Z,46.80
2023-04-16T08:56:28.129Z,43.43
2023-04-16T09:01:20.864Z,34.20
2023-04-16T09:06:13.812Z,29.03
2023-04-16T09:11:07.986Z,30.17
2023-04-16T09:16:00.735Z,26.20
2023-04-16T09:20:53.326Z,24.27
2023-04-16T09:25:46.071Z,20.97
2023-04-16T09:30:39.946Z,23.37
2023-04-16T09:35:45.649Z,24.77
2023-04-16T09:40:39.708Z,25.80
2023-04-16T09:45:33.942Z,25.20
2023-04-16T09:50:29.383Z,23.77
2023-04-16T09:55:24.001Z,27.60
2023-04-16T10:00:19.543Z,31.37
2023-04-16T10:05:16.824Z,32.50
2023-04-16T10:10:11.254Z,21.77
2023-04-16T10:15:04.971Z,22.30
2023-04-16T10:19:58.629Z,25.60
2023-04-16T10:24:51.986Z,18.97
2023-04-16T10:29:46.069Z,17.13
2023-04-16T10:34:38.770Z,14.10
2023-04-16T10:39:31.353Z,16.27
2023-04-16T10:44:25.897Z,15.73
2023-04-16T10:49:20.410Z,15.47
2023-04-16T10:54:26.252Z,16.13
2023-04-16T10:59:19.934Z,16.40
2023-04-16T11:04:27.700Z,15.83
2023-04-16T11:09:35.507Z,20.30
2023-04-16T11:14:30.749Z,14.07
2023-04-16T11:19:23.418Z,18.37
2023-04-16T11:24:16.230Z,15.07
2023-04-16T11:29:14.958Z,16.30
2023-04-16T11:34:09.742Z,15.30
2023-04-16T11:39:03.115Z,19.20
2023-04-16T11:43:55.780Z,18.07
2023-04-16T11:48:49.218Z,17.50
2023-04-16T11:53:47.948Z,16.30
2023-04-16T11:58:40.920Z,15.50
2023-04-16T12:03:39.546Z,14.73
2023-04-16T12:08:32.931Z,24.70
2023-04-16T12:13:26.877Z,15.60
2023-04-16T12:18:20.302Z,35.17
2023-04-16T12:23:23.233Z,16.80
2023-04-16T12:28:16.516Z,16.93
2023-04-16T12:33:17.315Z,16.80
2023-04-16T12:38:10.602Z,17.50
2023-04-16T12:43:03.386Z,15.57
2023-04-16T12:47:56.220Z,17.37
2023-04-16T12:52:50.582Z,17.13
2023-04-16T12:57:43.205Z,21.20
2023-04-16T13:02:35.946Z,19.47
2023-04-16T13:07:28.993Z,25.47
2023-04-16T13:12:23.076Z,19.10
2023-04-16T13:17:15.705Z,22.80
2023-04-16T13:22:08.298Z,19.73
2023-04-16T13:27:00.920Z,19.87
2023-04-16T13:31:55.013Z,22.57
2023-04-16T13:36:47.618Z,15.80
2023-04-16T13:41:40.342Z,16.63
2023-04-16T13:46:33.201Z,18.00
2023-04-16T13:51:27.542Z,14.90
2023-04-16T13:56:20.279Z,18.73
2023-04-16T14:01:12.962Z,16.07
2023-04-16T14:06:06.062Z,19.60
2023-04-16T14:11:00.587Z,16.47
2023-04-16T14:15:54.519Z,15.67
2023-04-16T14:20:47.098Z,15.40
2023-04-16T14:25:39.910Z,14.07
2023-04-16T14:30:37.540Z,16.13
2023-04-16T14:35:31.226Z,14.67
2023-04-16T14:40:23.819Z,14.23
2023-04-16T14:45:16.480Z,15.30
2023-04-16T14:50:11.364Z,14.20
2023-04-16T14:55:05.445Z,14.43
2023-04-16T14:59:58.042Z,14.57
2023-04-16T15:04:50.621Z,14.53
2023-04-16T15:09:44.562Z,14.80
2023-04-16T15:14:37.274Z,16.60
2023-04-16T15:19:29.902Z,15.03
2023-04-16T15:24:22.508Z,17.57
2023-04-16T15:29:24.824Z,21.10
2023-04-16T15:34:19.236Z,19.30
2023-04-16T15:39:12.216Z,18.53
2023-04-16T15:44:05.515Z,20.70
2023-04-16T15:49:09.628Z,22.43
2023-04-16T15:54:04.788Z,31.90
2023-04-16T15:59:04.210Z,33.90
2023-04-16T16:03:57.204Z,42.03
2023-04-16T16:08:51.367Z,27.60
2023-04-16T16:13:44.496Z,21.43
2023-04-16T16:18:37.349Z,20.20
2023-04-16T16:23:30.020Z,22.53
2023-04-16T16:28:25.065Z,24.07
2023-04-16T16:33:18.015Z,20.57
2023-04-16T16:38:10.744Z,16.67
2023-04-16T16:43:03.873Z,18.23
2023-04-16T16:47:58.923Z,21.87
2023-04-16T16:52:51.667Z,19.70
2023-04-16T16:57:44.309Z,22.83
2023-04-16T17:02:37.023Z,21.93
2023-04-16T17:07:31.050Z,23.97
2023-04-16T17:12:24.171Z,30.13
2023-04-16T17:17:17.125Z,23.50
2023-04-16T17:22:09.802Z,27.00
2023-04-16T17:27:04.071Z,24.03
2023-04-16T17:31:56.770Z,26.10
2023-04-16T17:36:50.498Z,26.43
2023-04-16T17:41:43.151Z,26.00
2023-04-16T17:46:37.284Z,30.00
2023-04-16T17:51:31.117Z,27.40
2023-04-16T17:56:23.687Z,30.00
2023-04-16T18:01:18.630Z,29.60
2023-04-16T18:06:12.616Z,31.97
2023-04-16T18:11:07.209Z,29.13
2023-04-16T18:15:59.830Z,32.43
2023-04-16T18:20:53.174Z,36.03
2023-04-16T18:25:48.841Z,33.77
2023-04-16T18:30:41.576Z,33.50
2023-04-16T18:35:34.396Z,44.93
2023-04-16T18:40:29.158Z,38.53
2023-04-16T18:45:23.293Z,38.07
2023-04-16T18:50:15.900Z,36.93
2023-04-16T18:55:08.945Z,42.63
2023-04-16T19:00:01.531Z,47.97
2023-04-16T19:04:55.806Z,42.67
2023-04-16T19:09:48.392Z,44.90
2023-04-16T19:14:40.910Z,51.33
2023-04-16T19:19:33.589Z,50.87
2023-04-16T19:24:27.558Z,52.47
2023-04-16T19:29:20.170Z,47.50
2023-04-16T19:34:13.015Z,46.50
2023-04-16T19:39:06.121Z,51.10
2023-04-16T19:44:00.173Z,49.73
2023-04-16T19:48:52.743Z,50.33
2023-04-16T19:53:45.345Z,55.87
2023-04-16T19:58:39.199Z,50.93
2023-04-16T20:03:33.344Z,54.10
2023-04-16T20:08:25.966Z,55.40
2023-04-16T20:13:18.872Z,61.40
2023-04-16T20:18:12.788Z,53.80
2023-04-16T20:23:06.766Z,55.30
2023-04-16T20:28:00.685Z,62.37
2023-04-16T20:32:53.227Z,63.70
2023-04-16T20:37:46.534Z,68.90
2023-04-16T20:42:41.266Z,72.30
2023-04-16T20:47:34.969Z,80.47
2023-04-16T20:52:27.703Z,78.97
2023-04-16T20:57:22.146Z,74.43
2023-04-16T21:02:16.329Z,76.20
2023-04-16T21:07:09.176Z,89.83
2023-04-16T21:12:01.972Z,94.70
2023-04-16T21:16:55.207Z,88.33
2023-04-16T21:21:49.041Z,75.90
2023-04-16T21:26:41.556Z,81.03
2023-04-16T21:31:34.233Z,88.60
2023-04-16T21:36:27.484Z,87.63
2023-04-16T21:41:24.658Z,80.00
2023-04-16T21:46:17.222Z,78.33
2023-04-16T21:51:09.998Z,79.83
2023-04-16T21:56:03.482Z,94.67
2023-04-16T22:00:57.456Z,93.73
2023-04-16T22:05:50.013Z,93.80
2023-04-16T22:10:42.572Z,94.83
2023-04-16T22:15:35.232Z,102.00
2023-04-16T22:20:30.734Z,102.50
2023-04-16T22:25:23.433Z,110.03
2023-04-16T22:30:16.312Z,100.20
2023-04-16T22:35:09.409Z,90.63
2023-04-16T22:40:07.009Z,110.60
2023-04-16T22:44:59.708Z,92.83
2023-04-16T22:49:52.261Z,106.67
2023-04-16T22:54:44.818Z,101.03
2023-04-16T22:59:38.714Z,101.50
2023-04-16T23:04:32.866Z,108.23
2023-04-16T23:09:25.579Z,103.57
2023-04-16T23:14:18.584Z,108.30
2023-04-16T23:19:15.731Z,117.73
2023-04-16T23:24:08.622Z,117.80
2023-04-16T23:29:01.233Z,108.13
2023-04-16T23:33:54.082Z,117.63
2023-04-16T23:38:48.750Z,114.50
2023-04-16T23:43:41.614Z,116.30
2023-04-16T23:48:34.275Z,109.13
2023-04-16T23:53:26.810Z,115.33
2023-04-16T23:58:20.755Z,115.93
